11 novembre 2017

Rotax MAX Challenge Grand Finals 2017
4. - 11. November 2017 (Portimao Portugal)

Mondial Karting

Les finales

Final 125 Mini MAX (R50)
Platz StNr Name NAT Entrant Entrant-Nat Runden Gesamtzeit Fast Lap in Lap Differenz Abstand
1 111 Amand, Marcus FRA Marc Amand FRA 12 12:57.591 1:04.207 9
2 132 Day, Jamie UAE Al Ain Raceway UAE 12 12:58.040 1:03.884 9 + 0.449 + 0.449
3 107 Wharton, James AUS Int. Karting Distributors AUS 12 12:58.099 1:03.920 10 + 0.508 + 0.059
4 133 Kekati, Theo UAE Al Ain Raceway UAE 12 12:58.530 1:03.926 9 + 0.939 + 0.431
5 103 De Haan, Robert NED GCW De Haan NED 12 13:00.492 1:04.039 6 + 2.901 + 1.962
6 128 Fourie, Leyton Daniel RSA KMS Europe RSA 12 13:00.664 1:04.028 7 + 3.073 + 0.172
7 130 Tessaro, Vinicius BRA Wilton Santos junior PAR 12 13:02.401 1:04.116 7 + 4.810 + 1.737
8 102 Valint, Bence HUN Hargitai Racing HUN 12 13:04.529 1:04.409 5 + 6.938 + 2.128
9 104 Kret, Karol POL K-Dyno Kart POL 12 13:04.573 1:04.413 8 + 6.982 + 0.044
10 126 Stolcermanis, Tomass LAT 333 Autosport LAT 12 13:07.973 1:04.109 8 + 10.382 + 3.400
11 109 Fox, Aidan USA SRA Karting International USA 12 13:09.110 1:04.114 7 + 11.519 + 1.137
12 118 Vendelbo, Rasmus DEN Lars Vendelbo DEN 12 13:09.286 1:04.595 8 + 11.695 + 0.176
13 134 Rillaerts, Kai BEL Rillaerts Aite BEL 12 13:09.393 1:04.711 3 + 11.802 + 0.107
14 120 Tkachev, Ivan LTU AGS Racing Team EST 12 13:09.465 1:04.270 8 + 11.874 + 0.072
15 116 Ardila Romero, Juan Esteban COL Claudia Toledo COL 12 13:09.664 1:04.609 8 + 12.073 + 0.199
16 115 Arseneau, Justin CAN SRA Karting International CAN 12 13:09.924 1:04.303 6 + 12.333 + 0.260
17 125 Lu, Hebiete Nathan CHN Praga Asia KRS MAS 12 13:10.277 1:04.366 8 + 12.686 + 0.353
18 136 Aguilera Lopez, Marco ESP Norma Racing POR 12 13:15.210 1:04.329 8 + 17.619 + 4.933
19 101 Tarillion, Maximilian AUT Speedworld Academy AUT 12 13:15.295 1:04.040 8 + 17.704 + 0.085
20 114 Sokolov, Iakov RUS Aviagamma RUS 12 13:15.797 1:04.312 7 + 18.206 + 0.502
21 117 Yamashita, Daisuke JPN Eiko Japan JPN 12 13:17.441 1:04.650 4 + 19.850 + 1.644
22 121 Bertocco, Gregorio ITA Bertocco Gregorio ITA 12 13:17.601 1:04.825 8 + 20.010 + 0.160
23 119 Kukuruzov, Daniil UKR Kartprom UKR 12 13:17.785 1:04.964 8 + 20.194 + 0.184
24 122 Ramirez Pino, Ramon CHI Ramon Ramirez Soto CHI 12 13:17.969 1:04.683 7 + 20.378 + 0.184
25 108 Pierson, Josh USA SRA Karting International CAN 12 13:22.497 1:04.168 8 + 24.906 + 4.528
26 113 Clavadetscher, Sacha SUI Speed Racing SUI 12 13:23.000 1:04.728 4 + 25.409 + 0.503
27 123 Kim, Hwarang KOR TRK Promotion KOR 12 13:23.332 1:04.866 10 + 25.741 + 0.332
28 105 Valint, Balazs HUN Hargitai Racing HUN 12 13:23.970 1:04.314 8 + 26.379 + 0.638
29 112 Blomqvist, Joona FIN Blomqvist Joona FIN 12 13:24.317 1:05.067 7 + 26.726 + 0.347
30 129 Brion, Andres ARG Bohdanowicz Hugo Ruben ARG 12 13:24.583 1:04.993 8 + 26.992 + 0.266
31 131 Bohdanowicz, Lucas ARG Bohdanowicz Hugo ARG 12 13:25.488 1:05.077 8 + 27.897 + 0.905
32 110 Tanic, Craig FRA Harry Tanic FRA 12 13:25.522 1:03.900 7 + 27.931 + 0.034
33 135 Alanis, Eric ESP Kids To Win C .E ESP 12 13:25.889 1:04.531 7 + 28.298 + 0.367
34 106 Abi Nakhle, Sami-Joe LIB Azimut Automotive LIB 12 13:25.976 1:04.773 12 + 28.385 + 0.087
35 127 Hensen, Linus GER Kartschmie.De GER 10 11:04.880 1:03.902 7 -2 L -2 L
36 124 Lopez, Eloy MEX Jose Lopez MEX

Final 125 Micro MAX (R49)
Platz StNr Name NAT Entrant Entrant-Nat Runden Gesamtzeit Fast Lap in Lap Differenz Abstand
1 13 Iglesias, Louis FRA Iglesias Yannick FRA 10 11:29.341 1:07.923 9
2 9 Zelenko, Leon CRO Sportstil SLO 10 11:31.130 1:08.012 6 + 1.789 + 1.789
3 20 Horachi, Ryota JPN Eiko Japan JPN 10 11:31.531 1:08.068 6 + 2.190 + 0.401
4 1 Obst, Maksymilian POL Bambini Racing POL 10 11:31.884 1:07.994 4 + 2.543 + 0.353
5 3 Crews, Brent USA SRA Karting International CAN 10 11:31.995 1:07.844 7 + 2.654 + 0.111
6 24 Bondarev, Oleksandr UKR Kartprom UKR 10 11:33.341 1:08.030 9 + 4.000 + 1.346
7 22 Koros, Zoltan SVK Kf Racing Team SVK 10 11:33.385 1:08.093 4 + 4.044 + 0.044
8 5 Bassani, Antonella BRA Wilton Santos Junior PAR 10 11:33.410 1:08.201 8 + 4.069 + 0.025
9 31 Janovskis, Martins LAT MRG Racing LAT 10 11:34.635 1:08.445 5 + 5.294 + 1.225
10 19 Malheiro, Adrian POR Olga Sune Recio POR 10 11:35.963 1:07.719 9 + 6.622 + 1.328
11 11 Jeffers, Jack USA SRA Karting International CAN 10 11:37.679 1:07.938 6 + 8.338 + 1.716
12 32 Alva, Ruhaan IND Birel Art India IND 10 11:37.700 1:07.992 9 + 8.359 + 0.021
13 33 Bernasconi, Felipe ARG Jose Maria Bernasconi ARG 10 11:38.175 1:08.075 8 + 8.834 + 0.475
14 35 Al Azhari, Keanu UAE Al Ain Raceway UAE 10 11:39.265 1:07.868 9 + 9.924 + 1.090
15 36 Dedecker, Douwe BEL Dominique Dedecker BEL 10 11:39.338 1:08.242 7 + 9.997 + 0.073
16 30 Schmeiss, Moritz GER Beule-Kart Racing Team GER 10 11:39.848 1:08.169 6 + 10.507 + 0.510
17 15 Oliveira, Joao POR Nelson Oliveira POR 10 11:39.911 1:08.065 8 + 10.570 + 0.063
18 23 Ambiado, Nicolas CHI Marco Ambiado CHI 10 11:41.003 1:07.977 9 + 11.662 + 1.092
19 27 Khavalkin, Anatoly RUS Aviagamma RUS 10 11:42.169 1:08.471 9 + 12.828 + 1.166
20 4 Madden, Jonathan POL Wyrzykowski Motorsport POL 10 11:42.272 1:08.361 7 + 12.931 + 0.103
21 18 Pedersen, Mikkel Gaarde DEN Pedersen Tom Gaarde DEN 10 11:42.526 1:08.698 6 + 13.185 + 0.254
22 25 Fujii, Shota JPN Eiko Japan JPN 10 11:42.693 1:08.748 9 + 13.352 + 0.167
23 10 Van Ruiten, Dani NED Chris Van Ruiten NED 10 11:42.819 1:07.915 7 + 13.478 + 0.126
24 17 Wally, Muhammad RSA Wally Muhammad RSA 10 11:43.272 1:08.651 7 + 13.931 + 0.453
25 2 Krozser, Menyhert HUN Mhh Kart Team HUN 10 11:43.327 1:08.272 6 + 13.986 + 0.055
26 16 Paniccia, Marcello CAN SRA Karting International CAN 10 11:44.835 1:08.584 8 + 15.494 + 1.508
27 34 Borgert, Manuel ARG Edgardo Fritzler ARG 10 11:47.038 1:09.033 3 + 17.697 + 2.203
28 28 Nazrul Haizal, Adam Mikail MAS Praga Asia KRS MAS 10 11:47.103 1:08.514 9 + 17.762 + 0.065
29 7 Jalava, Aleksi FIN Jalava Mikko FIN 10 11:48.448 1:09.067 9 + 19.107 + 1.345
30 21 Kostyna, Rostyslav UKR Kartprom UKR 10 11:54.857 1:09.814 5 + 25.516 + 6.409
31 6 Gladysz, Maciej POL Gladysz Karting Team POL 10 12:02.761 1:08.044 5 + 33.420 + 7.904
32 8 Khneisser, Edwin LIB Azimut Automotive LIB 10 12:02.823 1:09.775 2 + 33.482 + 0.062
33 12 Lykos, Nikolaos GRE Lazarakos Giorgos GRE 10 12:06.747 1:10.612 4 + 37.406 + 3.924
34 29 Arnett, Harry AUS Int. Karting Distributors AUS 4 4:46.738 1:09.151 3 -6 L -6 L
35 14 Nael, Theophile FRA Laurent Nael FRA
36 26 Kim, Junho KOR TRK Promotion KOR

Final 125 Junior MAX (R51)
Platz StNr Name NAT Entrant Entrant-Nat Runden Gesamtzeit Fast Lap in Lap Differenz Abstand
1 202 Van Der Helm, Tijmen NED Gerard Van Der Helm NED 17 17:18.056 1:00.325 12
2 236 Moriyama, Tosei JPN Eiko Japan JPN 17 17:18.911 1:00.257 8 + 0.855 + 0.855
3 240 Van Walstijn, Senna NED JJ Racing NED 17 17:19.704 1:00.506 5 + 1.648 + 0.793
4 221 Meguetounif, Sami FRA Pierre Meguetounif FRA 17 17:19.987 1:00.206 8 + 1.931 + 0.283
5 255 Ibrahim, Muhammad IND Praga Asia KRS MAS 17 17:20.104 1:00.121 8 + 2.048 + 0.117
6 272 Leistra, Luca BEL Pedro Leistra BEL 17 17:20.348 1:00.045 7 + 2.292 + 0.244
7 256 Otto, Fritzler ARG Edgardo Fritzler ARG 17 17:20.675 1:00.255 11 + 2.619 + 0.327
8 201 Nagy, Sandor HUN Top-Motorsport Egyesuelet HUN 17 17:20.888 1:00.022 8 + 2.832 + 0.213
9 218 Crawford, Jak USA SRA Karting International CAN 17 17:21.112 1:00.256 8 + 3.056 + 0.224
10 233 Prouteau, Camille FRA Franck Prouteau FRA 17 17:21.228 1:00.164 17 + 3.172 + 0.116
11 239 Van Vugt, Mike NED JJ Racing NED 17 17:22.816 1:00.035 15 + 4.760 + 1.588
12 222 Wood, Ryan NZL Shane Wood NZL 17 17:23.234 1:00.452 6 + 5.178 + 0.418
13 269 Bataller Camare, Ivan ESP EKR Kart Racing ESP 17 17:24.514 1:00.039 11 + 6.458 + 1.280
14 238 Hamada, Toranosuke JPN Eiko Japan JPN 17 17:25.353 1:00.215 13 + 7.297 + 0.839
15 231 Bernier, Victor FRA Fabrice Bernier FRA 17 17:26.457 1:00.084 13 + 8.401 + 1.104
16 206 Preston, Jac AUS Int. Karting Distributors AUS 17 17:26.814 1:00.083 17 + 8.758 + 0.357
17 250 Turiev, Maksim RUS Aviagamma RUS 17 17:26.968 1:00.280 11 + 8.912 + 0.154
18 216 Deukmedjian, Arias USA SRA Karting International CAN 17 17:27.662 1:00.288 9 + 9.606 + 0.694
19 267 Handsaeme, Xavier BEL Xavier Handsaeme BEL 17 17:27.774 1:00.175 14 + 9.718 + 0.112
20 245 Leroux, Romain SIN Praga Asia KRS MAS 17 17:28.580 1:00.411 12 + 10.524 + 0.806
21 232 Saarniala, Axel FIN Kohtala Sports FIN 17 17:30.814 1:00.065 13 + 12.758 + 2.234
22 217 Gonzalez, Tyler USA SRA Karting International CAN 17 17:32.610 1:00.014 11 + 14.554 + 1.796
23 228 Woods-Toth, Patrick CAN SRA Karting International CAN 17 17:34.006 1:00.396 11 + 15.950 + 1.396
24 203 Foster, Tommy GBR Dan Holland Racing GBR 17 17:34.170 1:00.185 14 + 16.114 + 0.164
25 249 Leon, Noel MEX Noel Leon MEX 17 17:35.686 1:00.981 10 + 17.630 + 1.516
26 234 Riis, Mads DEN Mads RathckeThomsen DEN 17 17:40.371 1:00.685 14 + 22.315 + 4.685
27 213 Hannus, Jimi FIN Jukka Hannus FIN 17 17:40.630 1:00.749 15 + 22.574 + 0.259
28 214 Coertze, Joshua RSA Kobie Coertze RSA 17 17:40.803 1:00.635 15 + 22.747 + 0.173
29 262 Sei, Karl-Markus EST TGT Racing EST 17 17:41.374 1:00.711 8 + 23.318 + 0.571
30 208 Pope, Jaiden AUS Int. Karting Distributors AUS 16 16:18.302 1:00.400 4 -1 L -1 L
31 219 Vair, Hugo FRA Guignet Jean Philipe FRA 15 16:24.643 1:00.668 6 -2 L -1 L
32 237 Morin, Hannes SWE Hannes Morin SWE 14 14:35.994 1:00.498 6 -3 L -1 L
33 210 Feeney, Broc AUS Int. Karting Distributors AUS 9 9:25.845 1:00.561 5 -8 L -5 L
34 263 Duerksen, Joshua PAR Daniel Candia PAR 9 9:36.376 1:00.611 4 -8 L + 10.531
35 207 Penov, Hristo BUL Vladimir Penov BUL 6 6:18.805 1:01.249 6 -11 L -3 L
36 211 Pokos, Jan CRO Sportstil SLO 1 1:13.311 1:08.075 1 -16 L -5 L

Final 125 MAX (R52)
Platz StNr Name NAT Entrant Entrant-Nat Runden Gesamtzeit Fast Lap in Lap Differenz Abstand
1 323 Ward, Brett GBR 3G Racing GER 20 20:13.282 59.862 13
2 365 Warge, Felix BEL Warge Felix BEL 20 20:13.403 59.803 19 + 0.121 + 0.121
3 324 Nomblot, Jean FRA Marc Nomblot FRA 20 20:13.523 59.861 19 + 0.241 + 0.120
4 315 Brown-Nutley, Jordan GBR Dan Holland Racing GBR 20 20:14.069 1:00.021 7 + 0.787 + 0.546
5 336 Bezel, Petr CZE Bezel Petr CZE 20 20:14.372 59.754 14 + 1.090 + 0.303
6 305 Leppa, Lauri FIN Heikki Vaeisaenen FIN 20 20:14.683 59.976 15 + 1.401 + 0.311
7 346 Mizuno, Koki JPN Eiko Japan JPN 20 20:15.070 59.858 14 + 1.788 + 0.387
8 333 Macdermid, Ryan CAN SRA Karting International CAN 20 20:16.461 59.822 14 + 3.179 + 1.391
9 359 Nistri, Lorenzo ITA Nistri Lorenzo ITA 20 20:16.603 59.954 10 + 3.321 + 0.142
10 325 Barrett, Bradley GBR Dan Holland Racing GBR 20 20:16.708 59.972 11 + 3.426 + 0.105
11 352 Hunter, Rhys GBR KR Sport UK GBR 20 20:16.880 59.877 10 + 3.598 + 0.172
12 370 Bordas Cotes, Enric ESP Kids To Win C.E. ESP 20 20:17.047 59.905 14 + 3.765 + 0.167
13 317 Ioannou, Nikolaos GRE Kartworks GRE 20 20:17.391 59.913 13 + 4.109 + 0.344
14 360 Vava, Filip ESP Dobrila Vava Atanackovic ESP 20 20:17.455 59.528 13 + 4.173 + 0.064
15 338 Signoretti, Marco CAN SRA Karting International CAN 20 20:17.693 59.936 14 + 4.411 + 0.238
16 362 Turner, Charlie GBR Turner Charlie GBR 20 20:18.500 1:00.159 5 + 5.218 + 0.807
17 312 Brewczynski, Cody AUS Int. Karting Distributors AUS 20 20:18.504 59.746 7 + 5.222 + 0.004
18 318 Kverkild, Ruben NOR Team Pro-Karting NOR 20 20:18.697 1:00.004 15 + 5.415 + 0.193
19 357 Bergmeier, Tamino GER JJ Racing NED 20 20:18.943 59.627 18 + 5.661 + 0.246
20 356 Lee, Chanjoon KOR TRK Promotion KOR 20 20:19.153 59.863 9 + 5.871 + 0.210
21 332 Selliken, Lucas USA SRA Karting International CAN 20 20:19.856 59.739 11 + 6.574 + 0.703
22 307 Kaprzyk, Mateusz POL JR Racing POL 20 20:21.036 59.739 10 + 7.754 + 1.180
23 347 Zviedris, Valters LAT Jurmala Papas Rt LAT 20 20:21.254 59.791 9 + 7.972 + 0.218
24 316 Sarrazin, Arnaud FRA Sarrazin Arnaud FRA 20 20:21.450 59.909 16 + 8.168 + 0.196
25 303 Johnson, James GBR Dan Holland Racing GBR 20 20:22.180 59.778 11 + 8.898 + 0.730
26 361 Veerus, Ragnar EST TGT Racing EST 20 20:22.246 59.913 16 + 8.964 + 0.066
27 355 Rehme, David SWE Dan Holland Racing GBR 20 20:22.351 59.860 9 + 9.069 + 0.105
28 340 Novak, Mario AUT KSB Racing Team AUT 20 20:22.517 59.837 17 + 9.235 + 0.166
29 372 Andersen, Charlie SWE KR Sport GBR 20 20:22.709 59.952 10 + 9.427 + 0.192
30 313 Cranston, Jacob NZL Cranston Andrew NZL 20 20:23.449 59.812 16 + 10.167 + 0.740
31 334 Ritter, Kellen CAN SRA Karting International CAN 20 20:23.579 1:00.101 10 + 10.297 + 0.130
32 314 Jenner, Bradley AUS Int. Karting Distributors AUS 20 20:24.536 59.778 9 + 11.254 + 0.957
33 304 Peixoto, Guilherme BRA Wilton Santos junior PAR 20 20:24.951 1:00.111 9 + 11.669 + 0.415
34 349 Portell, Diego CHI Francisco Portell CHI 20 20:28.874 59.931 9 + 15.592 + 3.923
35 353 Coutinho, Goncalo POR Rui Coutinho POR 20 20:32.042 59.818 9 + 18.760 + 3.168
36 309 Gregula, Jakub POL JR Racing POL 6 6:26.838 1:01.010 4 -14 R -14 R

Final 125 MAX DD2 Masters (R53)
Platz StNr Name NAT Entrant Entrant-Nat Runden Gesamtzeit Fast Lap in Lap Differenz Abstand
1 506 Woolston, Troy AUS Int. Karting Distributors AUS 20 19:48.055 58.798 10
2 517 Ollikainen, Antti FIN Jussi Malila FIN 20 19:48.291 58.843 9 + 0.236 + 0.236
3 521 Hipp, Charly FRA Langlois Mathieu FRA 20 19:53.127 59.106 14 + 5.072 + 4.836
4 565 Helfinger, Tommy GER Praga Offical Racing Team GER 20 19:53.275 59.029 6 + 5.220 + 0.148
5 535 Stephen, Michael RSA Stephen Michael RSA 20 19:53.434 58.874 12 + 5.379 + 0.159
6 510 Howard, Scott AUS Int. Karting Distributors AUS 20 19:55.297 59.094 13 + 7.242 + 1.863
7 525 Wang, Derek USA SRA Karting International CAN 20 19:55.464 58.726 13 + 7.409 + 0.167
8 537 Dauphin, Mickael FRA Dauphin Mickael FRA 20 19:56.194 58.761 13 + 8.139 + 0.730
9 502 Adams, Christophe BEL Christophe Adams BEL 20 19:56.935 58.834 13 + 8.880 + 0.741
10 519 Glauser, Alessandro SUI Kartteam Meier SUI 20 19:57.355 59.060 15 + 9.300 + 0.420
11 559 Kawase, Tomokazu JPN Eiko Japan JPN 20 19:57.406 58.861 9 + 9.351 + 0.051
12 504 Guzzi, Fernando BRA Guzzi Fernando BRA 20 19:57.527 59.081 13 + 9.472 + 0.121
13 533 Matelic, Primoz SLO AKK Sportstil SLO 20 19:57.917 58.965 15 + 9.862 + 0.390
14 538 Muranski, Slawomir POL Wyrzykowski Motorsport POL 20 19:58.087 58.918 14 + 10.032 + 0.170
15 530 Zughella, Gabriel ARG Zughella Gabriel ARG 20 19:58.186 58.872 9 + 10.131 + 0.099
16 518 Castro, Ariel USA SRA Karting International CAN 20 20:00.850 59.110 13 + 12.795 + 2.664
17 553 Eckholt, Rodrigo CHI Francisco Portell Veliz CHI 20 20:01.562 59.115 15 + 13.507 + 0.712
18 531 Weinstock, Patrick GER Team VPDR VPD Racing AUT 20 20:01.832 58.995 15 + 13.777 + 0.270
19 501 Chittenden, Tiffany NZL Chittenden Tiffany NZL 20 20:02.487 59.050 7 + 14.432 + 0.655
20 503 Rico Muller, Juan Pablo COL Claudia Toledo COL 20 20:02.695 58.858 12 + 14.640 + 0.208
21 548 Baerensen, Michael DEN Lindbaek Baerensen Michael DEN 20 20:02.922 59.050 16 + 14.867 + 0.227
22 508 Aboissa, Michel BRA Aboissa Michel BRA 20 20:03.663 59.126 7 + 15.608 + 0.741
23 512 Walton, Kris AUS Int. Karting Distributors AUS 20 20:04.068 58.852 13 + 16.013 + 0.405
24 554 Medina, Carlos MEX Medina Carlos MEX 20 20:04.378 59.038 10 + 16.323 + 0.310
25 542 Pieterse, Jonathan RSA Pieterse Jonathan RSA 20 20:06.310 59.186 16 + 18.255 + 1.932
26 567 Mendes, Vitor Manuel POR Vitor Manuel de Freitas Mendes POR 20 20:06.363 58.988 13 + 18.308 + 0.053
27 534 Thomas, Chris GBR Chris Thomas GBR 20 20:06.394 59.075 10 + 18.339 + 0.031
28 551 Torres, Horacio CHI Horacio Torres CHI 20 20:10.591 59.117 7 + 22.536 + 4.197
29 545 Sato, Yuji JPN Eiko Japan JPN 20 20:10.908 59.234 11 + 22.853 + 0.317
30 571 Perez Santander, Jesus ESP Real Automovil Club ESP 20 20:11.151 59.260 12 + 23.096 + 0.243
31 540 Ferdin, Tomasz POL Wyrzykowski Motorsport POL 20 20:11.515 59.146 8 + 23.460 + 0.364
32 515 Zervos, Dimitris GRE Kartworks GRE 20 20:11.775 59.275 12 + 23.720 + 0.260
33 570 Blockley, Kyle UAE Al Ain Raceway UAE 20 20:13.363 59.011 10 + 25.308 + 1.588
34 536 Mukhin, Igor RUS Aviagamma RUS 20 20:19.387 59.036 7 + 31.332 + 6.024
35 514 Pesevski, Robert AUT Ksca Sodi Austria Team AUT 8 8:06.341 59.215 6 -12 L -12 L
36 505 Trita, Alexandre BRA Trita Alexandre BRA 6 6:15.027 59.778 4 -14 L -2 L

Final 125 MAX DD2 (R54)
Platz StNr Name NAT Entrant Entrant-Nat Runden Gesamtzeit Fast Lap in Lap Differenz Abstand
1 402 Gillis, Cody AUS Int. Karting Distributors AUS 20 19:38.767 58.359 13
2 455 Thomsen, Mads DEN Thomsen Mads R. DEN 20 19:42.749 58.431 10 + 3.982 + 3.982
3 465 Sorensen, Christian DEN Christian Sorensen DEN 20 19:43.179 58.429 10 + 4.412 + 0.430
4 404 De Ruwe, Xen SLO Sportstil SLO 20 19:43.263 58.419 8 + 4.496 + 0.084
5 456 Fleischmann, Max GER VPDR AUT 20 19:43.583 58.565 8 + 4.816 + 0.320
6 405 Alders, Joey NED Alders Joey NED 20 19:45.382 58.515 7 + 6.615 + 1.799
7 425 Viiliaeinen, Ville FIN Heikki Vaeisaenen FIN 20 19:45.512 58.627 11 + 6.745 + 0.130
8 443 Pagliarani, Claudio ITA Pagliarani Claudio ITA 20 19:45.679 58.646 14 + 6.912 + 0.167
9 441 Steinerts, Martins LAT Martins Steinerts LAT 20 19:45.890 58.449 13 + 7.123 + 0.211
10 406 Birizdo, Imre HUN KMS Europe HUN 20 19:47.824 58.548 7 + 9.057 + 1.934
11 458 Stien, Nikolai NOR Team Pro-Karting NOR 20 19:47.867 58.431 7 + 9.100 + 0.043
12 440 Durante, Cosimo Francesc ITA Cosimo Francesco Durante ITA 20 19:48.479 58.539 7 + 9.712 + 0.612
13 446 Bielecki, Kacper POL Inter Cars Karting Team POL 20 19:51.272 58.502 8 + 12.505 + 2.793
14 414 Njeim, Matthias LIB Azimut Automotive LIB 20 19:52.043 58.539 8 + 13.276 + 0.771
15 416 Kennedy, Ryan AUS Int. Karting Distributors AUS 20 19:54.444 58.380 8 + 15.677 + 2.401
16 457 Pires, Mariano POR Cabo Do Mundo Sportsyou POR 20 19:54.676 58.523 11 + 15.909 + 0.232
17 434 Kashak, Tyler CAN SRA Karting International CAN 20 19:56.032 58.340 8 + 17.265 + 1.356
18 466 Pullinger, Barrie GBR Dan Holland Racing GBR 20 19:56.199 58.674 8 + 17.432 + 0.167
19 453 Szabo, Nikolas SVK KMS Europe HUN 20 19:56.591 58.428 8 + 17.824 + 0.392
20 468 Cebrian Ariza, Gerard ESP Motor Club Creixell ESP 20 19:57.044 58.572 10 + 18.277 + 0.453
21 418 Schoell, Constantin AUT Daems Racing Team BEL 20 19:57.986 58.598 10 + 19.219 + 0.942
22 447 Hardja, Prassetyo INA Praga Asia KRS MAS 20 19:58.412 58.508 13 + 19.645 + 0.426
23 408 Belizario, Ruan BRA Wilton Santos junior PAR 20 20:05.279 58.664 12 + 26.512 + 6.867
24 424 Jurmanowicz, Karol POL Wyrzykowski Motorsport POL 20 20:10.092 59.425 3 + 31.325 + 4.813
25 471 Van Parijs, Glenn BEL Glenn van Parijs BEL 15 15:00.028 58.591 8 -5 L -5 L
26 469 Borlido, Bruno POR Bruno Borlido POR 12 12:00.757 58.672 8 -8 L -3 L
27 464 Kancsar, Ferenc HUN Kancsar Racing HUN 11 10:57.230 58.627 9 -9 L -1 L
28 448 Dueholm, Marc DEN Finn Kroun DEN 8 8:03.657 58.603 8 -12 L -3 L
29 460 De Bonis, Ramiro ARG Jorge De Bonis ARG 5 5:07.276 59.734 5 -15 L -3 L
30 467 Henckel Mortens, Martin GER Team VPDR Racing DEN 5 5:09.567 59.411 5 -15 L + 2.291
31 403 Slosar, Jan SLO Sportstil SLO 3 3:05.921 59.710 3 -17 L -2 L
32 423 Bruegger, Nico SUI Speed Racing Gmbh SUI 3 3:06.131 59.424 3 -17 L + 0.210
33 419 Kalesis, Filippos GRE PRT Motorsport GRE 2 2:18.048 59.529 2 -18 L -1 L
34 437 Pinto, Pedro POR Pinto Pedro POR
35 401 Dalmau, Oriol ESP Mdc Racing ESP
36 462 Al Rawahi, Abdullah OMA Al Ain Raceway UAE


paddock